Time;durP1;ratioP1;P1;durP2;ratioP2;P2;SDS_P1;SDS_P2;PMS_P1;PMS_P2;Temp;Humidity;BMP_temperature;BMP_pressure;BME280_temperature;BME280_humidity;BME280_pressure;Samples;Min_cycle;Max_cycle;Signal;HPM_P1;HPM_P2
2022/01/13 00:01:30;;;;;;;12.07;7.45;;;3.90;56.10;;;;;;5146212;27;34532;-76
2022/01/13 00:03:57;;;;;;;12.55;7.30;;;3.90;56.10;;;;;;5128115;27;34163;-75
2022/01/13 00:06:23;;;;;;;14.80;7.22;;;3.90;56.10;;;;;;5146140;27;34582;-76
2022/01/13 00:08:49;;;;;;;11.50;7.10;;;3.90;56.10;;;;;;5110987;27;34317;-76
2022/01/13 00:11:15;;;;;;;12.15;8.00;;;3.90;56.10;;;;;;5128320;27;34446;-76
2022/01/13 00:13:57;;;;;;;14.02;8.02;;;3.90;56.10;;;;;;5127298;27;34405;-76
2022/01/13 00:16:38;;;;;;;13.05;7.47;;;3.90;56.00;;;;;;5127357;27;34647;-76
2022/01/13 00:19:19;;;;;;;11.50;6.93;;;3.90;55.90;;;;;;5112393;27;34475;-76
2022/01/13 00:21:56;;;;;;;11.30;7.18;;;3.90;55.60;;;;;;5130048;27;34221;-75
2022/01/13 00:24:22;;;;;;;12.02;7.28;;;4.00;55.70;;;;;;5113217;27;34463;-75
2022/01/13 00:26:48;;;;;;;12.55;6.97;;;3.90;55.50;;;;;;5127540;27;35646;-75
2022/01/13 00:29:20;;;;;;;13.80;7.60;;;3.90;55.40;;;;;;5127053;27;34479;-75
2022/01/13 00:31:46;;;;;;;13.32;8.15;;;3.90;55.60;;;;;;5127212;27;34301;-76
2022/01/13 00:34:12;;;;;;;12.80;7.75;;;3.90;55.70;;;;;;5145254;27;34023;-76
2022/01/13 00:36:40;;;;;;;10.35;7.03;;;3.90;55.60;;;;;;5127426;27;35803;-76
2022/01/13 00:39:08;;;;;;;12.63;8.35;;;4.00;55.60;;;;;;5127290;27;34186;-76
2022/01/13 00:41:34;;;;;;;9.27;7.43;;;4.00;55.80;;;;;;5127098;27;34113;-76
2022/01/13 00:44:03;;;;;;;11.07;6.85;;;4.00;55.70;;;;;;5110487;27;34117;-76
2022/01/13 00:46:39;;;;;;;11.65;8.13;;;4.00;55.60;;;;;;5110271;27;36390;-76
2022/01/13 00:49:06;;;;;;;13.75;7.72;;;4.00;55.60;;;;;;5127314;27;34294;-75
2022/01/13 00:51:32;;;;;;;12.48;7.65;;;4.00;55.50;;;;;;5126778;27;34338;-75
2022/01/13 00:54:04;;;;;;;12.73;7.18;;;4.00;55.40;;;;;;5145711;27;34086;-76
2022/01/13 00:56:32;;;;;;;14.20;8.00;;;4.00;55.40;;;;;;5126671;27;35714;-76
2022/01/13 00:58:59;;;;;;;12.73;7.60;;;4.00;55.40;;;;;;5145601;27;34302;-76
2022/01/13 01:01:25;;;;;;;13.40;7.35;;;4.00;55.30;;;;;;5126313;27;34265;-76
2022/01/13 01:03:51;;;;;;;12.13;7.25;;;3.90;55.30;;;;;;5126657;27;34027;-76
2022/01/13 01:06:17;;;;;;;11.35;6.93;;;3.90;55.30;;;;;;5126282;27;34317;-76
2022/01/13 01:08:43;;;;;;;12.43;7.57;;;3.90;55.40;;;;;;5126919;27;34153;-76
2022/01/13 01:11:10;;;;;;;12.77;7.65;;;3.90;55.40;;;;;;5126885;27;34221;-76
2022/01/13 01:13:38;;;;;;;11.93;7.07;;;3.80;55.30;;;;;;5126705;27;34466;-75
2022/01/13 01:16:07;;;;;;;13.02;7.18;;;3.90;55.50;;;;;;5126517;27;35549;-75
2022/01/13 01:18:49;;;;;;;11.95;6.88;;;3.80;55.60;;;;;;5126785;27;34396;-76
2022/01/13 01:21:35;;;;;;;12.98;7.70;;;3.80;55.30;;;;;;5126853;27;34194;-75
2022/01/13 01:26:47;;;;;;;11.38;6.75;;;3.80;55.40;;;;;;5144156;27;34305;-75
2022/01/13 01:29:23;;;;;;;11.00;7.65;;;3.80;55.30;;;;;;5145322;27;34249;-75
2022/01/13 01:31:52;;;;;;;10.80;7.15;;;3.70;55.30;;;;;;5126352;27;34341;-76
2022/01/13 01:37:06;;;;;;;11.38;7.03;;;3.70;55.30;;;;;;5129434;27;34200;-75
2022/01/13 01:39:32;;;;;;;12.55;7.47;;;3.70;55.20;;;;;;5110059;27;34099;-75
2022/01/13 01:41:58;;;;;;;12.88;7.95;;;3.60;55.10;;;;;;5125576;27;34211;-75
2022/01/13 01:44:33;;;;;;;14.63;7.95;;;3.60;55.10;;;;;;5109271;27;34171;-76
2022/01/13 01:47:00;;;;;;;14.35;7.55;;;3.60;55.10;;;;;;5127456;27;34569;-75
2022/01/13 01:49:27;;;;;;;12.00;7.68;;;3.50;55.10;;;;;;5125946;27;34187;-75
2022/01/13 01:51:57;;;;;;;13.88;8.07;;;3.50;55.10;;;;;;5126530;27;34268;-75
2022/01/13 01:54:24;;;;;;;13.80;8.13;;;3.50;55.10;;;;;;5109188;27;34541;-75
2022/01/13 01:56:50;;;;;;;15.50;8.02;;;3.50;55.20;;;;;;5108948;27;36448;-75
2022/01/13 01:59:20;;;;;;;13.43;8.32;;;3.50;55.30;;;;;;5144173;27;34253;-75
2022/01/13 02:01:48;;;;;;;13.90;8.35;;;3.50;55.20;;;;;;5126817;27;34156;-75
2022/01/13 02:04:15;;;;;;;13.00;7.60;;;3.50;55.10;;;;;;5125918;27;34296;-75
2022/01/13 02:06:43;;;;;;;12.27;7.60;;;3.50;55.00;;;;;;5108442;27;35737;-75
2022/01/13 02:09:12;;;;;;;12.65;7.68;;;3.50;55.10;;;;;;5126289;27;34205;-75
2022/01/13 02:11:43;;;;;;;14.55;8.27;;;3.40;55.10;;;;;;5143787;27;34117;-76
2022/01/13 02:17:08;;;;;;;14.63;8.30;;;3.40;55.10;;;;;;5127392;27;34433;-75
2022/01/13 02:19:37;;;;;;;10.77;6.88;;;3.40;55.10;;;;;;5144494;27;34748;-75
2022/01/13 02:22:04;;;;;;;11.77;7.65;;;3.40;55.10;;;;;;5125784;27;34356;-75
2022/01/13 02:24:31;;;;;;;15.40;8.10;;;3.40;54.90;;;;;;5125927;27;34337;-75
2022/01/13 02:26:57;;;;;;;12.88;6.90;;;3.40;55.00;;;;;;5108516;27;36771;-75
2022/01/13 02:29:24;;;;;;;11.35;6.43;;;3.40;54.90;;;;;;5108368;27;34150;-75
2022/01/13 02:31:51;;;;;;;12.40;7.13;;;3.30;54.90;;;;;;5108949;27;34185;-75
2022/01/13 02:34:18;;;;;;;12.38;6.88;;;3.30;55.00;;;;;;5144395;27;34290;-75
2022/01/13 02:36:46;;;;;;;12.75;7.65;;;3.30;55.10;;;;;;5125560;27;35607;-75
2022/01/13 02:39:12;;;;;;;13.13;7.90;;;3.30;55.10;;;;;;5125389;27;34221;-75
2022/01/13 02:41:38;;;;;;;13.23;7.10;;;3.30;55.00;;;;;;5125660;27;34423;-75
2022/01/13 02:44:14;;;;;;;13.80;7.57;;;3.30;55.10;;;;;;5108510;27;34490;-75
2022/01/13 02:49:26;;;;;;;12.85;7.50;;;3.20;55.00;;;;;;5127937;27;34092;-75
2022/01/13 02:51:53;;;;;;;12.45;7.13;;;3.20;54.90;;;;;;5126407;27;34262;-75
2022/01/13 02:54:20;;;;;;;15.02;7.68;;;3.20;54.80;;;;;;5128981;27;34222;-75
2022/01/13 02:56:47;;;;;;;12.93;7.53;;;3.20;55.00;;;;;;5146949;27;34301;-75
2022/01/13 02:59:13;;;;;;;13.57;7.47;;;3.20;55.70;;;;;;5128674;27;34410;-75
2022/01/13 03:01:40;;;;;;;13.43;7.95;;;3.10;55.00;;;;;;5146956;27;34182;-75
2022/01/13 03:04:08;;;;;;;17.40;8.15;;;3.10;55.10;;;;;;5147333;27;34588;-75
2022/01/13 03:06:38;;;;;;;14.63;8.57;;;3.10;55.00;;;;;;5128364;27;36598;-75
2022/01/13 03:09:06;;;;;;;15.15;8.55;;;3.10;55.10;;;;;;5128953;27;34284;-75
2022/01/13 03:11:35;;;;;;;14.95;8.18;;;3.20;55.00;;;;;;5146605;27;34220;-75
2022/01/13 03:14:03;;;;;;;14.52;7.85;;;3.20;55.00;;;;;;5128136;27;34318;-75
2022/01/13 03:16:30;;;;;;;13.43;7.47;;;3.20;54.90;;;;;;5146819;27;34347;-75
2022/01/13 03:18:56;;;;;;;16.08;7.72;;;3.10;54.90;;;;;;5128215;27;34475;-75
2022/01/13 03:21:23;;;;;;;14.15;8.10;;;3.10;55.00;;;;;;5128297;27;34269;-75
2022/01/13 03:23:50;;;;;;;13.65;7.97;;;3.10;54.90;;;;;;5128406;27;34142;-75
2022/01/13 03:26:16;;;;;;;15.13;8.27;;;3.10;54.80;;;;;;5127986;27;36107;-75
2022/01/13 03:31:24;;;;;;;16.10;7.53;;;3.10;54.90;;;;;;5146933;27;34320;-75
2022/01/13 03:33:53;;;;;;;12.80;7.95;;;3.10;54.80;;;;;;5094566;27;34481;-75
2022/01/13 03:36:19;;;;;;;15.93;8.63;;;3.00;54.70;;;;;;5128486;27;35812;-75
2022/01/13 03:38:46;;;;;;;13.20;7.63;;;3.00;54.70;;;;;;5111020;27;34365;-75
2022/01/13 03:41:13;;;;;;;13.95;7.90;;;3.00;54.70;;;;;;5128052;27;34283;-75
2022/01/13 03:43:39;;;;;;;14.43;7.60;;;3.00;54.70;;;;;;5111393;27;34240;-75
2022/01/13 03:46:06;;;;;;;13.65;8.13;;;3.00;54.80;;;;;;5127847;27;35551;-75
2022/01/13 03:48:33;;;;;;;10.32;6.65;;;3.00;54.80;;;;;;5110721;27;34089;-75
2022/01/13 03:50:59;;;;;;;15.27;7.95;;;3.00;54.80;;;;;;5128039;27;34188;-75
2022/01/13 03:54:01;;;;;;;14.43;8.15;;;3.00;54.80;;;;;;5127766;27;34388;-75
2022/01/13 03:57:01;;;;;;;10.88;6.75;;;3.00;54.60;;;;;;5133245;27;35614;-75
2022/01/13 03:59:59;;;;;;;14.82;8.10;;;3.00;54.70;;;;;;5128038;27;34430;-75
2022/01/13 04:02:26;;;;;;;10.90;6.93;;;3.00;54.80;;;;;;5110838;27;34349;-76
2022/01/13 04:04:52;;;;;;;12.20;6.78;;;2.90;55.00;;;;;;5127558;27;34512;-75
2022/01/13 04:07:21;;;;;;;11.75;7.13;;;3.00;54.90;;;;;;5127238;27;35763;-75
2022/01/13 04:10:22;;;;;;;11.00;6.68;;;2.90;54.70;;;;;;5127444;27;34198;-75
2022/01/13 04:12:48;;;;;;;12.20;7.22;;;2.90;54.60;;;;;;5115735;27;34210;-75
2022/01/13 04:15:17;;;;;;;12.07;7.30;;;2.90;54.60;;;;;;5128106;27;34278;-75
2022/01/13 04:17:43;;;;;;;12.63;7.28;;;2.90;54.70;;;;;;5110048;27;35767;-75
2022/01/13 04:20:10;;;;;;;14.52;7.35;;;2.90;54.60;;;;;;5128696;27;34082;-75
2022/01/13 04:22:36;;;;;;;13.23;7.43;;;2.80;54.60;;;;;;5110571;27;34184;-75
2022/01/13 04:25:05;;;;;;;13.30;7.55;;;2.90;54.70;;;;;;5127189;27;34486;-75
2022/01/13 04:27:36;;;;;;;12.07;7.68;;;2.80;54.70;;;;;;5145008;27;34857;-75
2022/01/13 04:30:33;;;;;;;14.23;7.90;;;2.80;54.80;;;;;;5145958;27;34138;-75
2022/01/13 04:32:50;;;;;;;15.07;7.95;;;2.80;54.80;;;;;;5116601;27;34309;-75
2022/01/13 04:35:16;;;;;;;16.85;8.15;;;2.80;54.80;;;;;;5110405;27;34464;-75
2022/01/13 04:37:42;;;;;;;11.68;7.05;;;2.80;54.80;;;;;;5126407;27;35577;-75
2022/01/13 04:40:09;;;;;;;14.50;8.32;;;2.80;54.70;;;;;;5110251;27;34391;-75
2022/01/13 04:42:37;;;;;;;13.48;8.35;;;2.80;54.80;;;;;;5127536;27;34264;-75
2022/01/13 04:45:04;;;;;;;14.63;8.60;;;2.80;54.80;;;;;;5110476;27;34409;-75
2022/01/13 04:47:31;;;;;;;17.35;9.27;;;2.80;55.60;;;;;;5126885;27;35532;-75
2022/01/13 04:49:57;;;;;;;14.15;7.95;;;2.80;54.90;;;;;;5126762;27;34257;-75
2022/01/13 04:52:23;;;;;;;15.13;7.53;;;2.80;54.80;;;;;;5145219;27;34350;-75
2022/01/13 04:54:49;;;;;;;14.23;8.38;;;2.80;54.90;;;;;;5144954;27;34023;-75
2022/01/13 04:57:17;;;;;;;16.38;9.85;;;2.80;54.90;;;;;;5126661;27;35934;-75
2022/01/13 04:59:44;;;;;;;17.85;8.82;;;2.80;54.80;;;;;;5109806;27;33800;-75
2022/01/13 05:02:11;;;;;;;15.20;7.88;;;2.80;54.80;;;;;;5145351;27;34244;-75
2022/01/13 05:04:37;;;;;;;13.90;7.63;;;2.80;54.90;;;;;;5144925;27;34308;-75
2022/01/13 05:07:03;;;;;;;16.77;8.23;;;2.70;54.80;;;;;;5126353;27;35615;-75
2022/01/13 05:09:29;;;;;;;17.40;8.57;;;2.70;54.80;;;;;;5109627;27;34163;-75
2022/01/13 05:11:56;;;;;;;15.27;7.93;;;2.70;54.80;;;;;;5109730;27;34318;-75
2022/01/13 05:14:22;;;;;;;14.25;7.28;;;2.70;54.80;;;;;;5144917;27;34170;-75
2022/01/13 05:17:02;;;;;;;14.32;7.43;;;2.70;54.80;;;;;;5143145;27;35040;-75
2022/01/13 05:19:35;;;;;;;17.88;9.07;;;2.70;54.90;;;;;;5128520;27;34316;-75
2022/01/13 05:24:46;;;;;;;14.63;7.85;;;2.70;54.90;;;;;;5129164;27;34604;-75
2022/01/13 05:27:13;;;;;;;17.27;8.13;;;2.70;54.90;;;;;;5126498;27;35803;-75
2022/01/13 05:29:39;;;;;;;15.70;7.50;;;2.70;55.00;;;;;;5125639;27;34560;-75
2022/01/13 05:32:05;;;;;;;16.90;8.60;;;2.70;55.00;;;;;;5109242;27;34304;-75
2022/01/13 05:34:31;;;;;;;15.82;7.55;;;2.70;54.90;;;;;;5109100;27;34440;-75
2022/01/13 05:36:58;;;;;;;14.43;7.93;;;2.70;54.90;;;;;;5126286;27;34618;-75
2022/01/13 05:39:24;;;;;;;17.08;7.43;;;2.70;55.50;;;;;;5126042;27;34220;-75
2022/01/13 05:41:50;;;;;;;13.07;7.50;;;2.70;54.80;;;;;;5126253;27;34137;-75
2022/01/13 05:44:16;;;;;;;14.57;7.32;;;2.70;54.80;;;;;;5126284;27;34028;-75
2022/01/13 05:46:42;;;;;;;16.48;8.50;;;2.70;54.80;;;;;;5091862;27;35583;-75
2022/01/13 05:49:08;;;;;;;15.60;8.15;;;2.70;54.70;;;;;;5126029;27;34371;-75
2022/01/13 05:51:34;;;;;;;15.27;8.35;;;2.70;54.90;;;;;;5144253;27;34252;-75
2022/01/13 05:54:00;;;;;;;15.02;7.53;;;2.70;54.90;;;;;;5108779;27;34163;-75
2022/01/13 05:56:26;;;;;;;14.10;8.30;;;2.70;54.90;;;;;;5125277;27;36314;-75
2022/01/13 05:58:52;;;;;;;13.55;7.70;;;2.70;54.90;;;;;;5125648;27;34211;-75
2022/01/13 06:01:18;;;;;;;14.15;7.07;;;2.70;54.80;;;;;;5108550;27;34156;-75
2022/01/13 06:03:44;;;;;;;15.80;8.05;;;2.60;54.70;;;;;;5144167;27;34409;-75
2022/01/13 06:06:10;;;;;;;13.60;7.18;;;2.60;54.80;;;;;;5143902;27;35111;-75
2022/01/13 06:08:36;;;;;;;12.77;6.93;;;2.60;54.80;;;;;;5143769;27;34284;-75
2022/01/13 06:11:02;;;;;;;12.88;6.95;;;2.60;54.70;;;;;;5144461;27;34139;-75
2022/01/13 06:13:28;;;;;;;15.20;6.93;;;2.50;54.80;;;;;;5107913;27;34401;-75
2022/01/13 06:15:54;;;;;;;13.30;6.82;;;2.50;54.90;;;;;;5091730;27;37038;-75
2022/01/13 06:18:25;;;;;;;12.45;6.93;;;2.50;54.90;;;;;;5125922;27;34455;-75
2022/01/13 06:20:51;;;;;;;13.00;7.05;;;2.50;54.80;;;;;;5109229;27;34175;-75
2022/01/13 06:23:18;;;;;;;12.60;7.10;;;2.50;54.80;;;;;;5126358;27;34136;-75
2022/01/13 06:25:44;;;;;;;11.30;5.95;;;2.40;54.70;;;;;;5144401;27;35296;-75
2022/01/13 06:28:10;;;;;;;12.88;6.72;;;2.40;54.70;;;;;;5128523;27;34244;-75
2022/01/13 06:30:36;;;;;;;10.07;6.32;;;2.40;54.70;;;;;;5129025;27;34240;-75
2022/01/13 06:33:04;;;;;;;13.25;6.80;;;2.40;55.40;;;;;;5147660;27;34229;-75
2022/01/13 06:35:30;;;;;;;9.15;5.00;;;2.40;54.70;;;;;;5128959;27;36607;-75
2022/01/13 06:37:56;;;;;;;10.40;5.80;;;2.40;54.80;;;;;;5129051;27;34412;-75
2022/01/13 06:40:24;;;;;;;12.10;6.35;;;2.30;54.70;;;;;;5147722;27;34377;-75
2022/01/13 06:42:50;;;;;;;10.40;6.30;;;2.30;54.80;;;;;;5128649;27;34119;-75
2022/01/13 06:45:16;;;;;;;7.03;4.32;;;2.30;54.90;;;;;;5129049;27;34495;-75
2022/01/13 06:47:42;;;;;;;9.82;5.47;;;2.30;55.00;;;;;;5147486;27;34176;-75
2022/01/13 06:50:11;;;;;;;11.38;6.05;;;2.30;54.90;;;;;;5129033;27;34242;-75
2022/01/13 06:52:38;;;;;;;9.85;5.35;;;2.30;55.10;;;;;;5128566;27;34483;-75
2022/01/13 06:55:04;;;;;;;8.90;5.07;;;2.30;55.10;;;;;;5146914;27;34585;-75
2022/01/13 06:57:30;;;;;;;9.05;4.97;;;2.30;55.10;;;;;;5111612;27;34318;-75
2022/01/13 06:59:57;;;;;;;12.25;6.22;;;2.30;55.10;;;;;;5128735;27;34247;-75
2022/01/13 07:02:25;;;;;;;12.02;6.78;;;2.30;55.00;;;;;;5146896;27;34226;-75
2022/01/13 07:04:51;;;;;;;8.05;4.82;;;2.40;55.00;;;;;;5111697;27;35939;-75
2022/01/13 07:07:17;;;;;;;9.13;5.47;;;2.30;55.00;;;;;;5128545;27;34266;-75
2022/01/13 07:09:43;;;;;;;9.18;4.93;;;2.40;55.10;;;;;;5128158;27;34454;-75
2022/01/13 07:12:10;;;;;;;7.95;4.78;;;2.40;55.00;;;;;;5146813;27;34400;-75
2022/01/13 07:14:36;;;;;;;11.93;5.50;;;2.40;54.90;;;;;;5128423;27;35620;-75
2022/01/13 07:17:03;;;;;;;11.75;5.53;;;2.30;54.90;;;;;;5146927;27;34168;-75
2022/01/13 07:19:29;;;;;;;9.63;5.68;;;2.30;54.90;;;;;;5128492;27;34111;-75
2022/01/13 07:21:55;;;;;;;10.73;6.05;;;2.30;55.00;;;;;;5128525;27;34412;-75
2022/01/13 07:24:21;;;;;;;9.77;5.43;;;2.30;54.90;;;;;;5127951;27;35675;-75
2022/01/13 07:26:48;;;;;;;12.80;5.97;;;2.30;55.00;;;;;;5128237;27;34362;-75
2022/01/13 07:29:14;;;;;;;11.43;6.00;;;2.40;54.90;;;;;;5127705;27;34497;-75
2022/01/13 07:31:40;;;;;;;10.40;5.82;;;2.30;54.90;;;;;;5126044;27;34226;-75
2022/01/13 07:34:07;;;;;;;10.85;5.32;;;2.40;54.90;;;;;;5125440;27;34546;-75
2022/01/13 07:36:34;;;;;;;11.60;5.43;;;2.30;55.00;;;;;;5107760;27;34163;-75
2022/01/13 07:39:00;;;;;;;11.82;5.97;;;2.40;55.00;;;;;;5090131;27;34210;-75
2022/01/13 07:41:26;;;;;;;10.57;5.85;;;2.30;54.90;;;;;;5107621;27;34465;-75
2022/01/13 07:43:55;;;;;;;8.80;5.18;;;2.30;54.90;;;;;;5106938;27;35729;-75
2022/01/13 07:46:23;;;;;;;10.65;5.53;;;2.40;55.00;;;;;;5126106;27;34054;-75
2022/01/13 07:48:49;;;;;;;10.93;6.18;;;2.30;55.00;;;;;;5090192;27;34284;-75
2022/01/13 07:51:15;;;;;;;10.80;5.93;;;2.40;55.10;;;;;;5125757;27;34427;-75
2022/01/13 07:53:42;;;;;;;12.27;6.43;;;2.40;54.80;;;;;;5106831;27;35741;-75
2022/01/13 07:56:08;;;;;;;14.60;7.10;;;2.30;54.70;;;;;;5106733;27;34398;-75
2022/01/13 07:58:35;;;;;;;9.20;5.60;;;2.30;54.80;;;;;;5106524;27;34613;-75
2022/01/13 08:01:03;;;;;;;10.30;5.68;;;2.30;54.70;;;;;;5107486;27;34612;-75
2022/01/13 08:03:29;;;;;;;11.80;6.15;;;2.30;54.70;;;;;;5107349;27;35652;-75
2022/01/13 08:05:55;;;;;;;12.65;6.57;;;2.20;54.70;;;;;;5108725;27;34342;-75
2022/01/13 08:08:21;;;;;;;13.27;6.35;;;2.20;54.70;;;;;;5126785;27;34220;-75
2022/01/13 08:10:47;;;;;;;10.23;5.60;;;2.20;54.70;;;;;;5091015;27;34139;-75
2022/01/13 08:13:13;;;;;;;10.65;5.75;;;2.20;54.90;;;;;;5091129;27;35526;-75
2022/01/13 08:15:40;;;;;;;11.40;5.80;;;2.10;54.80;;;;;;5090504;27;34179;-75
2022/01/13 08:20:47;;;;;;;10.35;5.70;;;2.20;54.90;;;;;;5110494;27;33987;-75
2022/01/13 08:23:13;;;;;;;12.18;5.43;;;2.10;54.90;;;;;;5106839;27;36786;-75
2022/01/13 08:25:40;;;;;;;11.90;6.30;;;2.20;54.90;;;;;;5090756;27;34173;-75
2022/01/13 08:28:06;;;;;;;12.13;6.20;;;2.20;54.90;;;;;;5108761;27;34081;-75
2022/01/13 08:30:33;;;;;;;12.80;6.53;;;2.20;54.70;;;;;;5106780;27;34127;-75
2022/01/13 08:33:00;;;;;;;11.07;5.43;;;2.20;54.80;;;;;;5089246;27;35505;-75
2022/01/13 08:35:26;;;;;;;12.82;6.82;;;2.30;54.90;;;;;;5107068;27;34294;-75
2022/01/13 08:37:52;;;;;;;10.57;6.13;;;2.30;54.90;;;;;;5106591;27;34291;-75
2022/01/13 08:40:18;;;;;;;12.68;5.82;;;2.30;54.90;;;;;;5124913;27;34322;-75
2022/01/13 08:42:44;;;;;;;10.70;5.75;;;2.30;54.70;;;;;;5105856;27;35517;-75
2022/01/13 08:45:12;;;;;;;9.50;5.35;;;2.40;54.60;;;;;;5125119;27;34157;-75
2022/01/13 08:47:38;;;;;;;10.88;5.63;;;2.40;54.60;;;;;;5106178;27;34218;-75
2022/01/13 08:50:07;;;;;;;8.13;4.63;;;2.40;54.60;;;;;;5124228;27;34178;-75
2022/01/13 08:52:37;;;;;;;10.00;4.93;;;2.50;54.70;;;;;;5123525;27;34938;-75
2022/01/13 08:55:09;;;;;;;7.18;4.47;;;2.40;54.60;;;;;;5106899;27;34298;-75
2022/01/13 08:57:36;;;;;;;7.20;4.55;;;2.50;54.50;;;;;;5106587;27;34173;-75
2022/01/13 09:00:03;;;;;;;7.45;4.30;;;2.50;54.40;;;;;;5106028;27;34149;-75
2022/01/13 09:02:33;;;;;;;8.55;4.50;;;2.50;54.40;;;;;;5088917;27;35712;-75
2022/01/13 09:05:01;;;;;;;9.32;4.72;;;2.50;54.50;;;;;;5105720;27;34552;-75
2022/01/13 09:07:27;;;;;;;8.70;3.95;;;2.50;54.30;;;;;;5105669;27;34226;-75
2022/01/13 09:09:53;;;;;;;9.35;5.07;;;2.50;54.20;;;;;;5105946;27;34089;-75
2022/01/13 09:12:19;;;;;;;7.05;4.20;;;2.50;54.30;;;;;;5088832;27;36533;-75
2022/01/13 09:14:46;;;;;;;9.20;4.40;;;2.50;54.30;;;;;;5088575;27;34084;-75
2022/01/13 09:17:20;;;;;;;7.13;3.88;;;2.60;54.40;;;;;;5105999;27;34274;-75
2022/01/13 09:19:46;;;;;;;8.63;4.30;;;2.50;54.40;;;;;;5105924;27;34640;-75
2022/01/13 09:22:12;;;;;;;6.57;3.67;;;2.50;54.40;;;;;;5124066;27;34163;-75
2022/01/13 09:24:38;;;;;;;8.63;4.75;;;2.60;54.40;;;;;;5088776;27;34183;-75
2022/01/13 09:27:05;;;;;;;8.80;5.20;;;2.60;54.40;;;;;;5123952;27;34244;-75
2022/01/13 09:29:31;;;;;;;8.00;4.80;;;2.60;54.30;;;;;;5106300;27;34227;-75
2022/01/13 09:31:57;;;;;;;6.20;3.38;;;2.60;54.90;;;;;;5088279;27;35612;-75
2022/01/13 09:34:23;;;;;;;7.57;4.05;;;2.60;54.30;;;;;;5105315;27;34140;-75
2022/01/13 09:36:49;;;;;;;7.32;4.15;;;2.60;54.40;;;;;;5088374;27;34090;-75
2022/01/13 09:39:15;;;;;;;5.47;3.78;;;2.70;54.60;;;;;;5088670;27;34208;-75
2022/01/13 09:41:44;;;;;;;7.65;4.30;;;2.70;54.40;;;;;;5105138;27;36738;-75
2022/01/13 09:44:12;;;;;;;6.15;4.00;;;2.80;54.10;;;;;;5124923;27;34257;-75
2022/01/13 09:46:39;;;;;;;10.00;4.97;;;2.80;53.90;;;;;;5088065;27;34266;-75
2022/01/13 09:49:07;;;;;;;8.00;4.32;;;2.80;54.10;;;;;;5105391;27;34344;-75
2022/01/13 09:51:36;;;;;;;5.97;3.72;;;2.80;54.20;;;;;;5106101;27;36815;-75
2022/01/13 09:54:03;;;;;;;6.45;4.30;;;2.80;54.20;;;;;;5106719;27;34361;-75
2022/01/13 09:56:30;;;;;;;8.18;4.38;;;2.90;54.10;;;;;;5088728;27;34158;-75
2022/01/13 09:58:56;;;;;;;6.65;3.97;;;2.90;53.90;;;;;;5088952;27;34111;-75
2022/01/13 10:01:22;;;;;;;9.07;4.65;;;2.90;53.80;;;;;;5122356;27;34915;-75
2022/01/13 10:03:48;;;;;;;8.02;4.70;;;2.90;53.80;;;;;;5124388;27;34075;-75
2022/01/13 10:06:17;;;;;;;9.27;4.80;;;2.90;54.10;;;;;;5124851;27;34229;-75
2022/01/13 10:08:54;;;;;;;8.38;4.75;;;3.00;54.00;;;;;;5089152;27;34422;-75
2022/01/13 10:11:36;;;;;;;8.70;4.75;;;3.10;53.90;;;;;;5106425;27;35665;-75
2022/01/13 10:17:09;;;;;;;7.95;4.88;;;3.20;53.70;;;;;;5102974;28;34443;-74
2022/01/13 10:19:38;;;;;;;6.57;4.28;;;3.30;53.60;;;;;;5102675;28;34543;-75
2022/01/13 10:22:11;;;;;;;6.95;3.83;;;3.30;53.50;;;;;;5102563;28;35824;-75
2022/01/13 10:24:39;;;;;;;9.43;4.47;;;3.30;53.60;;;;;;5102897;28;34174;-75
2022/01/13 10:27:09;;;;;;;6.43;4.40;;;3.30;53.60;;;;;;5103487;28;34380;-75
2022/01/13 10:29:38;;;;;;;7.15;4.32;;;3.40;53.80;;;;;;5102293;28;34436;-75
2022/01/13 10:32:05;;;;;;;9.00;4.60;;;3.40;53.30;;;;;;5101090;28;36664;-75
2022/01/13 10:34:32;;;;;;;7.03;4.30;;;3.50;53.30;;;;;;5101865;28;34320;-75
2022/01/13 10:37:05;;;;;;;5.78;3.85;;;3.60;53.40;;;;;;5084867;28;34386;-75
2022/01/13 10:39:57;;;;;;;7.97;4.38;;;3.60;53.40;;;;;;5102735;28;34207;-75
2022/01/13 10:42:45;;;;;;;7.18;4.55;;;3.70;53.20;;;;;;5102457;28;35974;-75
2022/01/13 10:45:17;;;;;;;8.27;4.65;;;3.80;52.50;;;;;;5102555;28;34208;-75
2022/01/13 10:47:50;;;;;;;7.78;4.47;;;3.90;53.20;;;;;;5086237;28;34300;-75
2022/01/13 10:50:17;;;;;;;7.57;4.65;;;3.90;52.90;;;;;;5085986;28;34444;-75
2022/01/13 10:52:43;;;;;;;6.18;4.13;;;4.00;53.00;;;;;;5100746;28;35734;-75
2022/01/13 10:55:15;;;;;;;6.70;4.32;;;4.10;52.80;;;;;;5100830;28;34217;-75
2022/01/13 10:57:43;;;;;;;8.27;4.45;;;4.20;52.90;;;;;;5101206;28;34087;-75
2022/01/13 11:00:21;;;;;;;7.45;4.40;;;4.20;52.80;;;;;;5102082;28;34159;-75
2022/01/13 11:03:02;;;;;;;7.53;4.93;;;4.20;52.90;;;;;;5085272;28;35586;-75
2022/01/13 11:05:29;;;;;;;7.30;4.28;;;4.20;52.60;;;;;;5103089;27;34080;-75
2022/01/13 11:07:57;;;;;;;7.35;4.43;;;4.30;52.80;;;;;;5101257;28;34268;-75
2022/01/13 11:10:24;;;;;;;6.50;4.07;;;4.40;53.10;;;;;;5100706;28;34132;-75
2022/01/13 11:12:57;;;;;;;6.85;3.85;;;4.40;52.80;;;;;;5084817;27;35648;-75
2022/01/13 11:15:24;;;;;;;5.75;3.95;;;4.50;52.50;;;;;;5121693;27;34121;-75
2022/01/13 11:17:53;;;;;;;7.50;4.80;;;4.70;52.90;;;;;;5107934;27;34050;-75
2022/01/13 11:20:21;;;;;;;7.32;4.10;;;5.00;52.50;;;;;;5107965;27;34206;-75
2022/01/13 11:22:50;;;;;;;5.65;3.90;;;5.30;52.10;;;;;;5107203;27;36362;-75
2022/01/13 11:25:19;;;;;;;7.15;4.65;;;5.40;51.60;;;;;;5108427;27;34338;-75
2022/01/13 11:27:46;;;;;;;6.32;4.18;;;5.70;52.10;;;;;;5107651;27;34212;-75
2022/01/13 11:30:16;;;;;;;8.93;5.22;;;5.90;52.00;;;;;;5126512;27;34098;-75
2022/01/13 11:32:44;;;;;;;6.05;4.40;;;6.00;51.10;;;;;;5107941;27;36051;-75
2022/01/13 11:35:12;;;;;;;5.38;3.92;;;6.00;51.20;;;;;;5108038;27;34183;-75
2022/01/13 11:37:40;;;;;;;5.82;3.90;;;6.00;51.00;;;;;;5107312;27;34165;-75
2022/01/13 11:40:08;;;;;;;7.55;4.47;;;6.10;51.10;;;;;;5087876;27;34402;-76
2022/01/13 11:42:49;;;;;;;7.88;4.63;;;6.20;51.30;;;;;;5098452;27;36085;-75
2022/01/13 11:45:16;;;;;;;7.85;4.45;;;6.40;50.20;;;;;;5090452;27;34268;-75
2022/01/13 11:47:43;;;;;;;7.72;4.18;;;6.50;51.20;;;;;;5107188;27;34363;-75
2022/01/13 11:50:19;;;;;;;6.97;4.57;;;6.60;50.80;;;;;;5107336;27;34499;-75
2022/01/13 11:52:51;;;;;;;8.00;4.40;;;6.60;50.70;;;;;;5090912;27;36384;-75
2022/01/13 11:55:29;;;;;;;6.70;4.25;;;6.60;50.70;;;;;;5106999;27;34356;-75
2022/01/13 11:58:19;;;;;;;7.45;4.60;;;6.60;50.50;;;;;;5106979;27;34280;-76
2022/01/13 12:00:48;;;;;;;6.90;4.13;;;6.60;49.30;;;;;;5124912;27;34270;-76
2022/01/13 12:03:32;;;;;;;6.82;4.32;;;6.50;51.00;;;;;;5124491;27;34502;-76
2022/01/13 12:06:00;;;;;;;5.57;3.80;;;6.60;50.40;;;;;;5106701;27;34418;-75
2022/01/13 12:08:45;;;;;;;6.82;4.45;;;6.60;51.30;;;;;;5107214;27;34312;-76
2022/01/13 12:11:46;;;;;;;8.85;4.78;;;6.60;50.80;;;;;;5089985;27;34411;-76
2022/01/13 12:14:33;;;;;;;6.50;4.10;;;6.70;50.30;;;;;;5094239;27;35854;-76
2022/01/13 12:17:06;;;;;;;5.90;4.05;;;6.70;50.30;;;;;;5089617;27;34397;-76
2022/01/13 12:19:39;;;;;;;7.25;4.75;;;6.70;51.30;;;;;;5108177;27;34257;-75
2022/01/13 12:22:11;;;;;;;6.70;4.35;;;6.70;51.30;;;;;;5107396;27;35078;-76
2022/01/13 12:24:52;;;;;;;5.90;3.92;;;6.70;51.80;;;;;;5107056;27;36710;-76
2022/01/13 12:27:22;;;;;;;5.47;4.15;;;6.80;51.30;;;;;;5092043;27;34185;-76
2022/01/13 12:30:07;;;;;;;7.07;4.32;;;6.80;51.90;;;;;;5108113;27;34329;-76
2022/01/13 12:32:39;;;;;;;6.47;4.72;;;6.90;50.50;;;;;;5071212;28;34398;-76
2022/01/13 12:35:09;;;;;;;6.68;4.47;;;7.00;51.60;;;;;;5086954;28;36078;-75
2022/01/13 12:37:39;;;;;;;8.63;4.07;;;7.00;51.20;;;;;;5105260;27;34104;-75
2022/01/13 12:40:16;;;;;;;7.05;4.70;;;7.00;51.30;;;;;;5104637;28;34309;-76
2022/01/13 12:42:52;;;;;;;6.13;4.53;;;7.00;50.80;;;;;;5104565;28;34207;-76
2022/01/13 12:45:29;;;;;;;7.13;4.05;;;7.10;51.50;;;;;;5105128;28;34893;-76
2022/01/13 12:47:59;;;;;;;7.05;4.43;;;7.10;50.70;;;;;;5105283;28;35113;-76
2022/01/13 12:50:37;;;;;;;8.68;3.88;;;7.10;51.30;;;;;;5086598;28;34321;-76
2022/01/13 12:53:15;;;;;;;8.38;4.68;;;7.20;50.80;;;;;;5086475;28;34472;-76
2022/01/13 12:55:45;;;;;;;5.57;4.47;;;7.20;50.30;;;;;;5103806;28;34180;-75
2022/01/13 12:58:11;;;;;;;5.95;4.20;;;7.20;50.90;;;;;;5087364;28;34229;-75
2022/01/13 13:00:38;;;;;;;6.78;4.68;;;7.20;51.10;;;;;;5086945;28;34209;-76
2022/01/13 13:03:06;;;;;;;5.50;3.90;;;7.20;51.30;;;;;;5121229;27;34470;-75
2022/01/13 13:05:45;;;;;;;6.53;4.30;;;7.30;51.30;;;;;;5086670;28;35911;-75
2022/01/13 13:08:16;;;;;;;7.05;4.47;;;7.20;50.30;;;;;;5086516;28;34120;-75
2022/01/13 13:10:45;;;;;;;7.03;4.15;;;7.30;51.30;;;;;;5086882;28;34082;-76
2022/01/13 13:13:13;;;;;;;6.72;4.43;;;7.30;51.20;;;;;;5086026;28;34138;-76
2022/01/13 13:15:40;;;;;;;5.95;4.20;;;7.30;51.20;;;;;;5082197;28;36381;-76
2022/01/13 13:18:07;;;;;;;7.97;4.88;;;7.40;51.20;;;;;;5120242;27;34243;-76
2022/01/13 13:20:36;;;;;;;6.47;4.03;;;7.40;51.80;;;;;;5103267;28;34160;-76
2022/01/13 13:23:06;;;;;;;13.95;3.80;;;7.40;51.00;;;;;;5104019;28;34398;-76